sensor_id;sensor_type;location;lat;lon;timestamp;pressure;altitude;pressure_sealevel;temperature;humidity
16821;BME280;8527;49.740;6.604;2023-02-21T00:03:17;100364.75;;;4.19;100.00
16821;BME280;8527;49.740;6.604;2023-02-21T00:08:38;100366.19;;;4.23;99.50
16821;BME280;8527;49.740;6.604;2023-02-21T00:13:49;100359.28;;;4.09;99.58
16821;BME280;8527;49.740;6.604;2023-02-21T00:19:03;100359.47;;;3.94;100.00
16821;BME280;8527;49.740;6.604;2023-02-21T00:24:15;100355.31;;;4.03;100.00
16821;BME280;8527;49.740;6.604;2023-02-21T00:29:27;100353.97;;;3.98;100.00
16821;BME280;8527;49.740;6.604;2023-02-21T00:34:41;100357.47;;;3.98;100.00
16821;BME280;8527;49.740;6.604;2023-02-21T00:39:52;100349.69;;;3.97;100.00
16821;BME280;8527;49.740;6.604;2023-02-21T00:45:03;100345.13;;;3.87;99.44
16821;BME280;8527;49.740;6.604;2023-02-21T00:50:17;100342.28;;;3.77;98.06
16821;BME280;8527;49.740;6.604;2023-02-21T00:55:27;100335.84;;;3.57;98.34
16821;BME280;8527;49.740;6.604;2023-02-21T01:00:38;100336.91;;;3.55;100.00
16821;BME280;8527;49.740;6.604;2023-02-21T01:05:52;100331.00;;;3.64;100.00
16821;BME280;8527;49.740;6.604;2023-02-21T01:11:04;100314.22;;;3.54;99.65
16821;BME280;8527;49.740;6.604;2023-02-21T01:16:14;100314.91;;;3.44;99.43
16821;BME280;8527;49.740;6.604;2023-02-21T01:21:28;100307.66;;;3.35;99.78
16821;BME280;8527;49.740;6.604;2023-02-21T01:26:39;100308.22;;;3.27;100.00
16821;BME280;8527;49.740;6.604;2023-02-21T01:31:56;100298.88;;;3.23;100.00
16821;BME280;8527;49.740;6.604;2023-02-21T01:37:09;100299.28;;;3.30;100.00
16821;BME280;8527;49.740;6.604;2023-02-21T01:42:20;100309.88;;;3.15;100.00
16821;BME280;8527;49.740;6.604;2023-02-21T01:47:32;100300.56;;;3.24;100.00
16821;BME280;8527;49.740;6.604;2023-02-21T01:52:47;100294.38;;;3.25;100.00
16821;BME280;8527;49.740;6.604;2023-02-21T01:57:59;100306.34;;;2.90;100.00
16821;BME280;8527;49.740;6.604;2023-02-21T02:03:22;100294.59;;;2.83;100.00
16821;BME280;8527;49.740;6.604;2023-02-21T02:08:39;100280.66;;;2.83;100.00
16821;BME280;8527;49.740;6.604;2023-02-21T02:14:03;100280.22;;;3.02;100.00
16821;BME280;8527;49.740;6.604;2023-02-21T02:19:41;100280.44;;;2.99;100.00
16821;BME280;8527;49.740;6.604;2023-02-21T02:25:17;100269.75;;;2.89;100.00
16821;BME280;8527;49.740;6.604;2023-02-21T02:36:03;100267.78;;;2.79;100.00
16821;BME280;8527;49.740;6.604;2023-02-21T02:41:08;100263.06;;;2.85;100.00
16821;BME280;8527;49.740;6.604;2023-02-21T02:46:14;100275.41;;;2.83;100.00
16821;BME280;8527;49.740;6.604;2023-02-21T02:51:17;100270.28;;;2.81;100.00
16821;BME280;8527;49.740;6.604;2023-02-21T02:56:16;100268.50;;;2.81;100.00
16821;BME280;8527;49.740;6.604;2023-02-21T03:01:57;100264.50;;;2.76;100.00
16821;BME280;8527;49.740;6.604;2023-02-21T03:07:11;100258.69;;;2.72;100.00
16821;BME280;8527;49.740;6.604;2023-02-21T03:12:24;100243.78;;;2.60;100.00
16821;BME280;8527;49.740;6.604;2023-02-21T03:17:33;100247.75;;;2.52;99.86
16821;BME280;8527;49.740;6.604;2023-02-21T03:22:42;100243.44;;;2.38;100.00
16821;BME280;8527;49.740;6.604;2023-02-21T03:27:53;100240.22;;;2.48;100.00
16821;BME280;8527;49.740;6.604;2023-02-21T03:32:59;100253.31;;;2.48;100.00
16821;BME280;8527;49.740;6.604;2023-02-21T03:38:26;100256.97;;;2.45;100.00
16821;BME280;8527;49.740;6.604;2023-02-21T03:43:27;100264.94;;;2.44;100.00
16821;BME280;8527;49.740;6.604;2023-02-21T03:48:26;100261.91;;;2.37;100.00
16821;BME280;8527;49.740;6.604;2023-02-21T03:53:27;100261.56;;;2.29;99.50
16821;BME280;8527;49.740;6.604;2023-02-21T03:58:25;100269.28;;;2.17;99.31
16821;BME280;8527;49.740;6.604;2023-02-21T04:03:26;100268.75;;;2.12;99.68
16821;BME280;8527;49.740;6.604;2023-02-21T04:08:27;100269.56;;;2.13;100.00
16821;BME280;8527;49.740;6.604;2023-02-21T04:13:26;100268.84;;;2.10;100.00
16821;BME280;8527;49.740;6.604;2023-02-21T04:18:31;100268.47;;;1.89;100.00
16821;BME280;8527;49.740;6.604;2023-02-21T04:23:33;100274.22;;;1.94;100.00
16821;BME280;8527;49.740;6.604;2023-02-21T04:28:33;100270.50;;;1.99;100.00
16821;BME280;8527;49.740;6.604;2023-02-21T04:33:37;100270.50;;;1.99;100.00
16821;BME280;8527;49.740;6.604;2023-02-21T04:38:38;100268.38;;;1.91;100.00
16821;BME280;8527;49.740;6.604;2023-02-21T04:43:37;100265.66;;;1.92;100.00
16821;BME280;8527;49.740;6.604;2023-02-21T04:48:35;100265.22;;;1.86;100.00
16821;BME280;8527;49.740;6.604;2023-02-21T04:53:34;100259.94;;;1.73;100.00
16821;BME280;8527;49.740;6.604;2023-02-21T04:58:44;100263.28;;;1.75;100.00
16821;BME280;8527;49.740;6.604;2023-02-21T05:03:48;100263.16;;;1.63;100.00
16821;BME280;8527;49.740;6.604;2023-02-21T05:08:51;100259.09;;;1.72;100.00
16821;BME280;8527;49.740;6.604;2023-02-21T05:13:52;100250.09;;;1.76;100.00
16821;BME280;8527;49.740;6.604;2023-02-21T05:18:51;100254.72;;;1.73;100.00
16821;BME280;8527;49.740;6.604;2023-02-21T05:24:00;100250.50;;;1.70;100.00
16821;BME280;8527;49.740;6.604;2023-02-21T05:29:04;100243.53;;;1.56;100.00
16821;BME280;8527;49.740;6.604;2023-02-21T05:34:02;100252.72;;;1.49;100.00
16821;BME280;8527;49.740;6.604;2023-02-21T05:39:10;100238.72;;;1.50;100.00
16821;BME280;8527;49.740;6.604;2023-02-21T05:44:17;100245.81;;;1.48;100.00
16821;BME280;8527;49.740;6.604;2023-02-21T05:49:19;100245.38;;;1.41;100.00
16821;BME280;8527;49.740;6.604;2023-02-21T05:54:19;100245.38;;;1.41;100.00
16821;BME280;8527;49.740;6.604;2023-02-21T05:59:21;100252.06;;;1.45;100.00
16821;BME280;8527;49.740;6.604;2023-02-21T06:04:26;100252.72;;;1.49;100.00
16821;BME280;8527;49.740;6.604;2023-02-21T06:09:24;100258.25;;;1.44;100.00
16821;BME280;8527;49.740;6.604;2023-02-21T06:19:36;100254.53;;;1.34;100.00
16821;BME280;8527;49.740;6.604;2023-02-21T06:24:43;100265.38;;;1.28;100.00
16821;BME280;8527;49.740;6.604;2023-02-21T06:29:44;100261.63;;;1.32;100.00
16821;BME280;8527;49.740;6.604;2023-02-21T06:34:45;100260.03;;;1.29;100.00
16821;BME280;8527;49.740;6.604;2023-02-21T06:39:44;100260.72;;;1.18;100.00
16821;BME280;8527;49.740;6.604;2023-02-21T06:44:43;100268.06;;;1.26;100.00
16821;BME280;8527;49.740;6.604;2023-02-21T06:49:42;100267.78;;;1.31;100.00
16821;BME280;8527;49.740;6.604;2023-02-21T06:54:44;100267.59;;;1.34;100.00
16821;BME280;8527;49.740;6.604;2023-02-21T06:59:42;100274.63;;;1.33;100.00
16821;BME280;8527;49.740;6.604;2023-02-21T07:04:40;100264.97;;;1.34;100.00
16821;BME280;8527;49.740;6.604;2023-02-21T07:09:39;100258.31;;;1.43;100.00
16821;BME280;8527;49.740;6.604;2023-02-21T07:14:41;100265.50;;;1.53;100.00
16821;BME280;8527;49.740;6.604;2023-02-21T07:19:39;100266.97;;;1.58;100.00
16821;BME280;8527;49.740;6.604;2023-02-21T07:24:38;100267.69;;;1.74;100.00
16821;BME280;8527;49.740;6.604;2023-02-21T07:29:36;100266.44;;;1.80;100.00
16821;BME280;8527;49.740;6.604;2023-02-21T07:34:37;100261.31;;;1.78;100.00
16821;BME280;8527;49.740;6.604;2023-02-21T07:39:36;100264.63;;;1.67;100.00
16821;BME280;8527;49.740;6.604;2023-02-21T07:44:34;100271.94;;;1.62;100.00
16821;BME280;8527;49.740;6.604;2023-02-21T07:49:38;100263.38;;;1.73;100.00
16821;BME280;8527;49.740;6.604;2023-02-21T07:54:37;100271.00;;;1.91;100.00
16821;BME280;8527;49.740;6.604;2023-02-21T07:59:36;100257.81;;;1.92;100.00
16821;BME280;8527;49.740;6.604;2023-02-21T08:04:48;100258.16;;;2.01;100.00
16821;BME280;8527;49.740;6.604;2023-02-21T08:09:47;100255.53;;;2.14;100.00
16821;BME280;8527;49.740;6.604;2023-02-21T08:14:45;100251.94;;;2.42;100.00
16821;BME280;8527;49.740;6.604;2023-02-21T08:19:52;100251.84;;;2.57;100.00
16821;BME280;8527;49.740;6.604;2023-02-21T08:24:50;100247.66;;;2.67;100.00
16821;BME280;8527;49.740;6.604;2023-02-21T08:29:50;100251.09;;;2.55;100.00
16821;BME280;8527;49.740;6.604;2023-02-21T08:34:51;100241.91;;;2.62;100.00
16821;BME280;8527;49.740;6.604;2023-02-21T08:39:51;100245.03;;;2.80;100.00
16821;BME280;8527;49.740;6.604;2023-02-21T08:44:50;100237.47;;;3.01;100.00
16821;BME280;8527;49.740;6.604;2023-02-21T08:49:52;100234.94;;;3.00;100.00
16821;BME280;8527;49.740;6.604;2023-02-21T08:54:50;100237.97;;;3.19;100.00
16821;BME280;8527;49.740;6.604;2023-02-21T08:59:49;100231.97;;;3.55;100.00
16821;BME280;8527;49.740;6.604;2023-02-21T09:04:48;100241.28;;;3.83;100.00
16821;BME280;8527;49.740;6.604;2023-02-21T09:09:50;100239.81;;;4.03;100.00
16821;BME280;8527;49.740;6.604;2023-02-21T09:14:49;100244.53;;;4.22;100.00
16821;BME280;8527;49.740;6.604;2023-02-21T09:19:53;100234.13;;;4.10;100.00
16821;BME280;8527;49.740;6.604;2023-02-21T09:24:54;100225.69;;;4.29;100.00
16821;BME280;8527;49.740;6.604;2023-02-21T09:29:53;100218.56;;;4.42;100.00
16821;BME280;8527;49.740;6.604;2023-02-21T09:34:54;100218.94;;;4.72;100.00
16821;BME280;8527;49.740;6.604;2023-02-21T09:39:56;100215.13;;;4.87;100.00
16821;BME280;8527;49.740;6.604;2023-02-21T09:44:55;100204.50;;;4.89;100.00
16821;BME280;8527;49.740;6.604;2023-02-21T09:49:57;100199.50;;;5.41;100.00
16821;BME280;8527;49.740;6.604;2023-02-21T09:55:02;100197.16;;;5.59;100.00
16821;BME280;8527;49.740;6.604;2023-02-21T10:00:15;100183.84;;;5.72;100.00
16821;BME280;8527;49.740;6.604;2023-02-21T10:05:21;100184.66;;;6.05;98.86
16821;BME280;8527;49.740;6.604;2023-02-21T10:10:30;100175.72;;;6.70;97.27
16821;BME280;8527;49.740;6.604;2023-02-21T10:15:38;100165.59;;;7.16;96.75
16821;BME280;8527;49.740;6.604;2023-02-21T10:20:44;100168.69;;;7.71;97.80
16821;BME280;8527;49.740;6.604;2023-02-21T10:25:48;100170.50;;;7.90;94.22
16821;BME280;8527;49.740;6.604;2023-02-21T10:30:59;100173.75;;;8.31;93.07
16821;BME280;8527;49.740;6.604;2023-02-21T10:35:58;100160.16;;;8.74;91.81
16821;BME280;8527;49.740;6.604;2023-02-21T10:41:06;100151.88;;;9.05;89.63
16821;BME280;8527;49.740;6.604;2023-02-21T10:46:12;100148.91;;;9.18;87.40
16821;BME280;8527;49.740;6.604;2023-02-21T10:51:17;100141.25;;;9.69;87.04
16821;BME280;8527;49.740;6.604;2023-02-21T10:56:31;100133.88;;;9.99;86.82
16821;BME280;8527;49.740;6.604;2023-02-21T11:01:34;100121.41;;;10.45;85.55
16821;BME280;8527;49.740;6.604;2023-02-21T11:06:35;100118.28;;;11.09;84.09
16821;BME280;8527;49.740;6.604;2023-02-21T11:11:39;100104.34;;;11.15;77.51
16821;BME280;8527;49.740;6.604;2023-02-21T11:16:43;100096.22;;;11.75;76.99
16821;BME280;8527;49.740;6.604;2023-02-21T11:21:42;100091.59;;;12.02;77.14
16821;BME280;8527;49.740;6.604;2023-02-21T11:26:47;100083.28;;;12.45;74.88
16821;BME280;8527;49.740;6.604;2023-02-21T11:31:47;100073.91;;;12.65;73.09
16821;BME280;8527;49.740;6.604;2023-02-21T11:36:53;100070.22;;;12.66;72.37
16821;BME280;8527;49.740;6.604;2023-02-21T11:42:04;100054.47;;;12.88;72.35
16821;BME280;8527;49.740;6.604;2023-02-21T11:47:24;100050.53;;;13.07;71.78
16821;BME280;8527;49.740;6.604;2023-02-21T11:52:30;100044.56;;;13.20;71.72
16821;BME280;8527;49.740;6.604;2023-02-21T11:57:41;100037.91;;;13.48;69.56
16821;BME280;8527;49.740;6.604;2023-02-21T12:02:54;100038.75;;;13.48;70.23
16821;BME280;8527;49.740;6.604;2023-02-21T12:13:28;100010.53;;;13.54;68.63
16821;BME280;8527;49.740;6.604;2023-02-21T12:18:50;100009.72;;;13.84;68.61
16821;BME280;8527;49.740;6.604;2023-02-21T12:23:58;100002.16;;;13.87;69.66
16821;BME280;8527;49.740;6.604;2023-02-21T12:29:16;100002.19;;;14.02;68.31
16821;BME280;8527;49.740;6.604;2023-02-21T12:34:30;99986.09;;;14.11;67.82
16821;BME280;8527;49.740;6.604;2023-02-21T12:39:52;99977.84;;;14.42;67.01
16821;BME280;8527;49.740;6.604;2023-02-21T12:45:06;99973.59;;;14.48;66.53
16821;BME280;8527;49.740;6.604;2023-02-21T12:50:14;99964.94;;;14.68;67.05
16821;BME280;8527;49.740;6.604;2023-02-21T12:55:19;99954.22;;;14.83;66.21
16821;BME280;8527;49.740;6.604;2023-02-21T13:00:24;99949.56;;;14.91;65.01
16821;BME280;8527;49.740;6.604;2023-02-21T13:05:31;99947.75;;;14.92;65.95
16821;BME280;8527;49.740;6.604;2023-02-21T13:10:35;99939.22;;;15.10;63.14
16821;BME280;8527;49.740;6.604;2023-02-21T13:15:42;99938.22;;;15.40;62.06
16821;BME280;8527;49.740;6.604;2023-02-21T13:20:45;99928.72;;;15.30;62.36
16821;BME280;8527;49.740;6.604;2023-02-21T13:25:59;99915.88;;;15.54;59.92
16821;BME280;8527;49.740;6.604;2023-02-21T13:31:05;99909.94;;;15.59;57.48
16821;BME280;8527;49.740;6.604;2023-02-21T13:36:19;99906.75;;;15.77;57.56
16821;BME280;8527;49.740;6.604;2023-02-21T13:41:24;99898.16;;;15.88;56.11
16821;BME280;8527;49.740;6.604;2023-02-21T13:52:27;99885.78;;;15.81;56.02
16821;BME280;8527;49.740;6.604;2023-02-21T13:57:32;99882.91;;;15.82;52.83
16821;BME280;8527;49.740;6.604;2023-02-21T14:02:36;99880.59;;;15.79;54.12
16821;BME280;8527;49.740;6.604;2023-02-21T14:07:57;99880.38;;;15.67;53.84
16821;BME280;8527;49.740;6.604;2023-02-21T14:12:59;99869.56;;;15.89;52.82
16821;BME280;8527;49.740;6.604;2023-02-21T14:18:03;99874.28;;;15.87;53.38
16821;BME280;8527;49.740;6.604;2023-02-21T14:23:03;99867.22;;;15.79;52.87
16821;BME280;8527;49.740;6.604;2023-02-21T14:33:38;99848.06;;;15.62;54.29
16821;BME280;8527;49.740;6.604;2023-02-21T14:38:41;99846.16;;;15.56;54.23
16821;BME280;8527;49.740;6.604;2023-02-21T14:43:55;99840.56;;;15.44;54.31
16821;BME280;8527;49.740;6.604;2023-02-21T15:00:16;99834.72;;;14.70;59.25
16821;BME280;8527;49.740;6.604;2023-02-21T15:05:24;99824.84;;;14.42;60.81
16821;BME280;8527;49.740;6.604;2023-02-21T15:10:25;99819.09;;;14.16;62.17
16821;BME280;8527;49.740;6.604;2023-02-21T15:15:26;99821.44;;;13.89;62.98
16821;BME280;8527;49.740;6.604;2023-02-21T15:20:28;99812.75;;;13.81;63.28
16821;BME280;8527;49.740;6.604;2023-02-21T15:25:28;99815.19;;;13.45;64.65
16821;BME280;8527;49.740;6.604;2023-02-21T15:30:32;99817.59;;;13.10;66.36
16821;BME280;8527;49.740;6.604;2023-02-21T15:35:38;99811.53;;;13.16;66.69
16821;BME280;8527;49.740;6.604;2023-02-21T15:40:37;99810.78;;;13.07;66.98
16821;BME280;8527;49.740;6.604;2023-02-21T15:45:43;99809.31;;;13.05;67.33
16821;BME280;8527;49.740;6.604;2023-02-21T15:50:47;99812.34;;;13.02;68.31
16821;BME280;8527;49.740;6.604;2023-02-21T15:55:47;99809.59;;;12.95;67.73
16821;BME280;8527;49.740;6.604;2023-02-21T16:00:47;99800.50;;;12.89;69.24
16821;BME280;8527;49.740;6.604;2023-02-21T16:05:48;99807.28;;;12.77;69.93
16821;BME280;8527;49.740;6.604;2023-02-21T16:10:47;99800.84;;;12.71;69.71
16821;BME280;8527;49.740;6.604;2023-02-21T16:15:45;99808.00;;;12.32;70.43
16821;BME280;8527;49.740;6.604;2023-02-21T16:20:44;99798.84;;;12.35;70.26
16821;BME280;8527;49.740;6.604;2023-02-21T16:31:26;99791.25;;;12.08;71.80
16821;BME280;8527;49.740;6.604;2023-02-21T16:36:29;99797.75;;;11.98;72.45
16821;BME280;8527;49.740;6.604;2023-02-21T16:41:27;99782.31;;;11.70;72.58
16821;BME280;8527;49.740;6.604;2023-02-21T16:46:29;99786.38;;;11.57;72.85
16821;BME280;8527;49.740;6.604;2023-02-21T16:51:27;99791.94;;;11.39;72.84
16821;BME280;8527;49.740;6.604;2023-02-21T16:56:32;99786.50;;;11.24;73.66
16821;BME280;8527;49.740;6.604;2023-02-21T17:01:36;99782.09;;;11.08;73.50
16821;BME280;8527;49.740;6.604;2023-02-21T17:06:35;99791.88;;;10.99;73.30
16821;BME280;8527;49.740;6.604;2023-02-21T17:11:36;99781.00;;;10.77;73.96
16821;BME280;8527;49.740;6.604;2023-02-21T17:16:41;99787.31;;;10.60;73.58
16821;BME280;8527;49.740;6.604;2023-02-21T17:21:44;99790.16;;;10.41;74.01
16821;BME280;8527;49.740;6.604;2023-02-21T17:26:44;99788.34;;;10.42;75.31
16821;BME280;8527;49.740;6.604;2023-02-21T17:31:45;99794.28;;;10.03;74.85
16821;BME280;8527;49.740;6.604;2023-02-21T17:36:50;99798.25;;;10.07;74.74
16821;BME280;8527;49.740;6.604;2023-02-21T17:41:50;99796.44;;;10.07;74.88
16821;BME280;8527;49.740;6.604;2023-02-21T17:46:55;99798.72;;;9.85;74.65
16821;BME280;8527;49.740;6.604;2023-02-21T17:51:54;99799.69;;;9.68;75.47
16821;BME280;8527;49.740;6.604;2023-02-21T17:56:52;99800.41;;;9.43;76.21
16821;BME280;8527;49.740;6.604;2023-02-21T18:01:54;99801.22;;;9.36;76.38
16821;BME280;8527;49.740;6.604;2023-02-21T18:06:56;99802.19;;;9.35;75.61
16821;BME280;8527;49.740;6.604;2023-02-21T18:11:59;99807.91;;;9.13;75.83
16821;BME280;8527;49.740;6.604;2023-02-21T18:17:00;99809.56;;;8.88;77.10
16821;BME280;8527;49.740;6.604;2023-02-21T18:22:05;99816.13;;;8.57;78.43
16821;BME280;8527;49.740;6.604;2023-02-21T18:27:07;99814.69;;;8.45;77.98
16821;BME280;8527;49.740;6.604;2023-02-21T18:32:13;99816.13;;;8.21;79.34
16821;BME280;8527;49.740;6.604;2023-02-21T18:37:12;99816.63;;;8.16;80.00
16821;BME280;8527;49.740;6.604;2023-02-21T18:42:13;99807.63;;;8.09;80.74
16821;BME280;8527;49.740;6.604;2023-02-21T18:47:15;99814.56;;;7.92;81.06
16821;BME280;8527;49.740;6.604;2023-02-21T18:52:15;99814.19;;;7.87;80.61
16821;BME280;8527;49.740;6.604;2023-02-21T18:57:14;99807.72;;;7.53;81.77
16821;BME280;8527;49.740;6.604;2023-02-21T19:02:18;99809.38;;;7.54;82.11
16821;BME280;8527;49.740;6.604;2023-02-21T19:07:23;99804.91;;;7.27;82.21
16821;BME280;8527;49.740;6.604;2023-02-21T19:12:24;99799.56;;;7.09;82.20
16821;BME280;8527;49.740;6.604;2023-02-21T19:17:25;99812.03;;;7.16;82.59
16821;BME280;8527;49.740;6.604;2023-02-21T19:22:27;99807.25;;;6.92;83.08
16821;BME280;8527;49.740;6.604;2023-02-21T19:27:25;99814.03;;;6.95;83.69
16821;BME280;8527;49.740;6.604;2023-02-21T19:32:26;99818.09;;;6.79;83.02
16821;BME280;8527;49.740;6.604;2023-02-21T19:37:25;99814.38;;;6.62;83.43
16821;BME280;8527;49.740;6.604;2023-02-21T19:42:23;99806.63;;;6.51;83.68
16821;BME280;8527;49.740;6.604;2023-02-21T19:47:27;99806.53;;;6.42;83.45
16821;BME280;8527;49.740;6.604;2023-02-21T19:52:26;99805.28;;;6.27;84.29
16821;BME280;8527;49.740;6.604;2023-02-21T19:57:25;99808.31;;;6.32;85.03
16821;BME280;8527;49.740;6.604;2023-02-21T20:02:24;99806.53;;;6.42;83.58
16821;BME280;8527;49.740;6.604;2023-02-21T20:07:25;99813.59;;;6.22;83.31
16821;BME280;8527;49.740;6.604;2023-02-21T20:12:25;99813.31;;;6.05;84.76
16821;BME280;8527;49.740;6.604;2023-02-21T20:17:24;99808.41;;;5.91;84.84
16821;BME280;8527;49.740;6.604;2023-02-21T20:22:25;99813.09;;;5.77;85.78
16821;BME280;8527;49.740;6.604;2023-02-21T20:27:28;99809.50;;;5.69;85.46
16821;BME280;8527;49.740;6.604;2023-02-21T20:32:29;99801.59;;;5.59;86.92
16821;BME280;8527;49.740;6.604;2023-02-21T20:37:35;99803.44;;;5.37;87.69
16821;BME280;8527;49.740;6.604;2023-02-21T20:42:34;99802.91;;;5.43;86.68
16821;BME280;8527;49.740;6.604;2023-02-21T20:47:36;99808.72;;;5.37;86.38
16821;BME280;8527;49.740;6.604;2023-02-21T20:52:38;99798.66;;;5.52;86.19
16821;BME280;8527;49.740;6.604;2023-02-21T20:57:36;99790.41;;;5.35;85.64
16821;BME280;8527;49.740;6.604;2023-02-21T21:02:34;99793.03;;;5.26;85.43
16821;BME280;8527;49.740;6.604;2023-02-21T21:07:39;99785.59;;;5.00;86.81
16821;BME280;8527;49.740;6.604;2023-02-21T21:12:42;99791.38;;;4.93;86.23
16821;BME280;8527;49.740;6.604;2023-02-21T21:17:41;99791.88;;;4.87;87.25
16821;BME280;8527;49.740;6.604;2023-02-21T21:22:44;99797.53;;;4.83;87.29
16821;BME280;8527;49.740;6.604;2023-02-21T21:27:43;99789.41;;;4.64;87.80
16821;BME280;8527;49.740;6.604;2023-02-21T21:32:44;99789.78;;;4.60;87.99
16821;BME280;8527;49.740;6.604;2023-02-21T21:37:46;99791.09;;;4.44;88.59
16821;BME280;8527;49.740;6.604;2023-02-21T21:42:47;99787.38;;;4.47;88.35
16821;BME280;8527;49.740;6.604;2023-02-21T21:47:47;99782.63;;;4.41;88.18
16821;BME280;8527;49.740;6.604;2023-02-21T21:52:55;99782.44;;;4.32;88.14
16821;BME280;8527;49.740;6.604;2023-02-21T21:57:55;99776.59;;;4.29;88.68
16821;BME280;8527;49.740;6.604;2023-02-21T22:02:56;99765.88;;;4.20;88.14
16821;BME280;8527;49.740;6.604;2023-02-21T22:07:58;99772.91;;;4.31;88.48
16821;BME280;8527;49.740;6.604;2023-02-21T22:12:57;99766.16;;;4.17;89.31
16821;BME280;8527;49.740;6.604;2023-02-21T22:18:08;99766.31;;;4.04;88.59
16821;BME280;8527;49.740;6.604;2023-02-21T22:23:10;99758.50;;;3.93;89.38
16821;BME280;8527;49.740;6.604;2023-02-21T22:28:10;99751.97;;;3.87;88.96
16821;BME280;8527;49.740;6.604;2023-02-21T22:33:09;99757.47;;;3.73;88.83
16821;BME280;8527;49.740;6.604;2023-02-21T22:38:15;99762.88;;;3.71;89.20
16821;BME280;8527;49.740;6.604;2023-02-21T22:43:13;99754.56;;;3.55;90.37
16821;BME280;8527;49.740;6.604;2023-02-21T22:48:14;99743.25;;;3.43;89.63
16821;BME280;8527;49.740;6.604;2023-02-21T22:53:16;99740.03;;;3.39;90.01
16821;BME280;8527;49.740;6.604;2023-02-21T22:58:17;99735.97;;;3.46;90.88
16821;BME280;8527;49.740;6.604;2023-02-21T23:03:23;99733.13;;;3.38;90.41
16821;BME280;8527;49.740;6.604;2023-02-21T23:08:31;99733.16;;;3.27;90.18
16821;BME280;8527;49.740;6.604;2023-02-21T23:13:30;99729.00;;;3.24;91.07
16821;BME280;8527;49.740;6.604;2023-02-21T23:18:29;99725.06;;;3.18;91.73
16821;BME280;8527;49.740;6.604;2023-02-21T23:23:30;99712.44;;;3.12;92.24
16821;BME280;8527;49.740;6.604;2023-02-21T23:28:29;99719.25;;;2.92;91.64
16821;BME280;8527;49.740;6.604;2023-02-21T23:33:29;99720.69;;;2.85;91.61
16821;BME280;8527;49.740;6.604;2023-02-21T23:38:32;99719.59;;;2.76;90.97
16821;BME280;8527;49.740;6.604;2023-02-21T23:43:34;99713.06;;;2.81;92.59
16821;BME280;8527;49.740;6.604;2023-02-21T23:48:34;99715.81;;;2.80;92.08
16821;BME280;8527;49.740;6.604;2023-02-21T23:53:35;99708.91;;;2.79;92.38
16821;BME280;8527;49.740;6.604;2023-02-21T23:58:35;99714.59;;;2.73;91.68
